sensor_id;sensor_type;location;lat;lon;timestamp;P1;P2;P0
65574;PMS5003;52216;54.942;73.394;2023-04-25T00:00:36;1.00;0.00;0.00
65574;PMS5003;52216;54.942;73.394;2023-04-25T00:03:39;2.50;1.50;0.00
65574;PMS5003;52216;54.942;73.394;2023-04-25T00:06:43;2.50;2.00;0.00
65574;PMS5003;52216;54.942;73.394;2023-04-25T00:09:46;0.00;0.00;0.00
65574;PMS5003;52216;54.942;73.394;2023-04-25T00:12:49;2.00;1.25;0.00
65574;PMS5003;52216;54.942;73.394;2023-04-25T00:15:55;2.00;1.00;0.00
65574;PMS5003;52216;54.942;73.394;2023-04-25T00:18:59;0.50;0.50;0.00
65574;PMS5003;52216;54.942;73.394;2023-04-25T00:22:02;1.00;1.00;0.00
65574;PMS5003;52216;54.942;73.394;2023-04-25T00:25:06;0.50;0.00;0.00
65574;PMS5003;52216;54.942;73.394;2023-04-25T00:28:09;1.00;0.00;0.00
65574;PMS5003;52216;54.942;73.394;2023-04-25T00:31:13;2.00;1.00;0.00
65574;PMS5003;52216;54.942;73.394;2023-04-25T00:34:16;0.00;0.00;0.00
65574;PMS5003;52216;54.942;73.394;2023-04-25T00:37:30;0.00;0.00;0.00
65574;PMS5003;52216;54.942;73.394;2023-04-25T00:40:34;0.00;0.00;0.00
65574;PMS5003;52216;54.942;73.394;2023-04-25T00:43:37;0.00;0.00;0.00
65574;PMS5003;52216;54.942;73.394;2023-04-25T00:46:42;0.00;0.00;0.00
65574;PMS5003;52216;54.942;73.394;2023-04-25T00:49:46;0.00;0.00;0.00
65574;PMS5003;52216;54.942;73.394;2023-04-25T00:52:59;0.00;0.00;0.00
65574;PMS5003;52216;54.942;73.394;2023-04-25T00:56:03;0.00;0.00;0.00
65574;PMS5003;52216;54.942;73.394;2023-04-25T00:59:07;0.00;0.00;0.00
65574;PMS5003;52216;54.942;73.394;2023-04-25T01:02:12;0.00;0.00;0.00
65574;PMS5003;52216;54.942;73.394;2023-04-25T01:05:15;1.00;1.00;0.00
65574;PMS5003;52216;54.942;73.394;2023-04-25T01:08:18;1.00;0.00;0.00
65574;PMS5003;52216;54.942;73.394;2023-04-25T01:11:57;1.00;0.00;0.00
65574;PMS5003;52216;54.942;73.394;2023-04-25T01:15:00;0.00;0.00;0.00
65574;PMS5003;52216;54.942;73.394;2023-04-25T01:18:04;0.00;0.00;0.00
65574;PMS5003;52216;54.942;73.394;2023-04-25T01:21:13;0.25;0.00;0.00
65574;PMS5003;52216;54.942;73.394;2023-04-25T01:24:17;2.00;1.00;0.00
65574;PMS5003;52216;54.942;73.394;2023-04-25T01:27:30;0.25;0.00;0.00
65574;PMS5003;52216;54.942;73.394;2023-04-25T01:30:34;1.75;1.00;0.00
65574;PMS5003;52216;54.942;73.394;2023-04-25T01:33:37;1.25;1.00;0.00
65574;PMS5003;52216;54.942;73.394;2023-04-25T01:36:49;2.00;0.00;0.00
65574;PMS5003;52216;54.942;73.394;2023-04-25T01:40:03;2.00;1.00;0.00
65574;PMS5003;52216;54.942;73.394;2023-04-25T01:43:07;0.00;0.00;0.00
65574;PMS5003;52216;54.942;73.394;2023-04-25T01:46:14;0.00;0.00;0.00
65574;PMS5003;52216;54.942;73.394;2023-04-25T01:49:18;0.00;0.00;0.00
65574;PMS5003;52216;54.942;73.394;2023-04-25T01:52:21;1.00;0.00;0.00
65574;PMS5003;52216;54.942;73.394;2023-04-25T01:55:24;0.00;0.00;0.00
65574;PMS5003;52216;54.942;73.394;2023-04-25T01:58:39;1.50;1.50;0.00
65574;PMS5003;52216;54.942;73.394;2023-04-25T02:02:00;2.80;2.00;0.00
65574;PMS5003;52216;54.942;73.394;2023-04-25T02:05:07;2.00;1.00;0.00
65574;PMS5003;52216;54.942;73.394;2023-04-25T02:08:13;3.00;1.00;0.00
65574;PMS5003;52216;54.942;73.394;2023-04-25T02:11:16;0.00;0.00;0.00
65574;PMS5003;52216;54.942;73.394;2023-04-25T02:14:48;3.25;2.00;0.00
65574;PMS5003;52216;54.942;73.394;2023-04-25T02:18:01;2.00;2.00;0.00
65574;PMS5003;52216;54.942;73.394;2023-04-25T02:21:04;3.00;3.00;0.00
65574;PMS5003;52216;54.942;73.394;2023-04-25T02:24:19;2.00;2.00;0.00
65574;PMS5003;52216;54.942;73.394;2023-04-25T02:27:22;2.00;2.00;0.00
65574;PMS5003;52216;54.942;73.394;2023-04-25T02:30:26;1.00;1.00;0.00
65574;PMS5003;52216;54.942;73.394;2023-04-25T02:33:29;2.00;2.00;0.00
65574;PMS5003;52216;54.942;73.394;2023-04-25T02:36:34;0.00;0.00;0.00
65574;PMS5003;52216;54.942;73.394;2023-04-25T02:39:38;0.75;0.00;0.00
65574;PMS5003;52216;54.942;73.394;2023-04-25T02:42:51;1.00;0.00;0.00
65574;PMS5003;52216;54.942;73.394;2023-04-25T02:45:55;1.25;1.25;0.00
65574;PMS5003;52216;54.942;73.394;2023-04-25T02:48:58;2.00;2.00;0.00
65574;PMS5003;52216;54.942;73.394;2023-04-25T02:52:01;2.50;2.50;0.00
65574;PMS5003;52216;54.942;73.394;2023-04-25T02:55:05;2.00;1.00;0.00
65574;PMS5003;52216;54.942;73.394;2023-04-25T02:58:09;2.00;2.00;0.00
65574;PMS5003;52216;54.942;73.394;2023-04-25T03:01:21;2.00;1.00;0.00
65574;PMS5003;52216;54.942;73.394;2023-04-25T03:04:30;2.00;2.00;0.00
65574;PMS5003;52216;54.942;73.394;2023-04-25T03:07:34;2.00;1.75;0.50
65574;PMS5003;52216;54.942;73.394;2023-04-25T03:10:38;1.25;1.00;0.00
65574;PMS5003;52216;54.942;73.394;2023-04-25T03:13:54;2.50;1.00;0.00
65574;PMS5003;52216;54.942;73.394;2023-04-25T03:16:57;1.00;1.00;0.00
65574;PMS5003;52216;54.942;73.394;2023-04-25T03:20:01;2.00;1.25;0.00
65574;PMS5003;52216;54.942;73.394;2023-04-25T03:23:07;2.00;2.00;0.00
65574;PMS5003;52216;54.942;73.394;2023-04-25T03:26:09;1.00;0.00;0.00
65574;PMS5003;52216;54.942;73.394;2023-04-25T03:29:11;0.00;0.00;0.00
65574;PMS5003;52216;54.942;73.394;2023-04-25T03:32:15;0.00;0.00;0.00
65574;PMS5003;52216;54.942;73.394;2023-04-25T03:35:19;0.00;0.00;0.00
65574;PMS5003;52216;54.942;73.394;2023-04-25T03:38:33;1.00;0.00;0.00
65574;PMS5003;52216;54.942;73.394;2023-04-25T03:41:36;0.00;0.00;0.00
65574;PMS5003;52216;54.942;73.394;2023-04-25T03:44:49;1.00;0.00;0.00
65574;PMS5003;52216;54.942;73.394;2023-04-25T03:47:52;0.00;0.00;0.00
65574;PMS5003;52216;54.942;73.394;2023-04-25T03:51:06;0.00;0.00;0.00
65574;PMS5003;52216;54.942;73.394;2023-04-25T03:54:12;0.00;0.00;0.00
65574;PMS5003;52216;54.942;73.394;2023-04-25T03:57:35;1.00;0.00;0.00
65574;PMS5003;52216;54.942;73.394;2023-04-25T04:00:41;2.75;2.00;0.00
65574;PMS5003;52216;54.942;73.394;2023-04-25T04:03:45;3.00;3.00;0.00
65574;PMS5003;52216;54.942;73.394;2023-04-25T04:06:48;1.50;0.00;0.00
65574;PMS5003;52216;54.942;73.394;2023-04-25T04:09:56;2.00;0.50;0.00
65574;PMS5003;52216;54.942;73.394;2023-04-25T04:13:12;1.00;1.00;0.00
65574;PMS5003;52216;54.942;73.394;2023-04-25T04:16:14;1.25;1.25;0.00
65574;PMS5003;52216;54.942;73.394;2023-04-25T04:19:23;2.00;2.00;0.00
65574;PMS5003;52216;54.942;73.394;2023-04-25T04:22:37;2.00;2.00;0.00
65574;PMS5003;52216;54.942;73.394;2023-04-25T04:25:45;2.00;2.00;0.00
65574;PMS5003;52216;54.942;73.394;2023-04-25T04:29:28;2.50;1.00;0.00
65574;PMS5003;52216;54.942;73.394;2023-04-25T04:32:53;2.00;1.50;0.00
65574;PMS5003;52216;54.942;73.394;2023-04-25T04:35:58;0.00;0.00;0.00
65574;PMS5003;52216;54.942;73.394;2023-04-25T04:39:05;1.00;0.00;0.00
65574;PMS5003;52216;54.942;73.394;2023-04-25T04:42:13;1.00;0.00;0.00
65574;PMS5003;52216;54.942;73.394;2023-04-25T04:45:27;0.00;0.00;0.00
65574;PMS5003;52216;54.942;73.394;2023-04-25T04:49:05;0.00;0.00;0.00
65574;PMS5003;52216;54.942;73.394;2023-04-25T04:52:31;1.00;0.00;0.00
65574;PMS5003;52216;54.942;73.394;2023-04-25T04:56:05;0.00;0.00;0.00
65574;PMS5003;52216;54.942;73.394;2023-04-25T04:59:30;0.00;0.00;0.00
65574;PMS5003;52216;54.942;73.394;2023-04-25T05:02:45;0.00;0.00;0.00
65574;PMS5003;52216;54.942;73.394;2023-04-25T05:06:03;0.00;0.00;0.00
65574;PMS5003;52216;54.942;73.394;2023-04-25T05:09:34;0.00;0.00;0.00
65574;PMS5003;52216;54.942;73.394;2023-04-25T05:12:50;0.00;0.00;0.00
65574;PMS5003;52216;54.942;73.394;2023-04-25T05:16:13;0.25;0.00;0.00
65574;PMS5003;52216;54.942;73.394;2023-04-25T05:19:34;0.00;0.00;0.00
65574;PMS5003;52216;54.942;73.394;2023-04-25T05:23:09;0.00;0.00;0.00
65574;PMS5003;52216;54.942;73.394;2023-04-25T05:26:19;0.00;0.00;0.00
65574;PMS5003;52216;54.942;73.394;2023-04-25T05:29:49;0.00;0.00;0.00
65574;PMS5003;52216;54.942;73.394;2023-04-25T05:33:11;0.00;0.00;0.00
65574;PMS5003;52216;54.942;73.394;2023-04-25T05:36:14;0.00;0.00;0.00
65574;PMS5003;52216;54.942;73.394;2023-04-25T05:39:27;0.00;0.00;0.00
65574;PMS5003;52216;54.942;73.394;2023-04-25T05:43:02;0.00;0.00;0.00
65574;PMS5003;52216;54.942;73.394;2023-04-25T05:46:35;0.00;0.00;0.00
65574;PMS5003;52216;54.942;73.394;2023-04-25T05:50:08;0.00;0.00;0.00
65574;PMS5003;52216;54.942;73.394;2023-04-25T05:53:27;0.25;0.00;0.00
65574;PMS5003;52216;54.942;73.394;2023-04-25T05:56:40;1.00;1.00;0.00
65574;PMS5003;52216;54.942;73.394;2023-04-25T05:59:43;1.00;1.00;0.00
65574;PMS5003;52216;54.942;73.394;2023-04-25T06:02:49;0.00;0.00;0.00
65574;PMS5003;52216;54.942;73.394;2023-04-25T06:06:01;0.00;0.00;0.00
65574;PMS5003;52216;54.942;73.394;2023-04-25T06:09:06;0.00;0.00;0.00
65574;PMS5003;52216;54.942;73.394;2023-04-25T06:12:19;0.00;0.00;0.00
65574;PMS5003;52216;54.942;73.394;2023-04-25T06:15:24;0.00;0.00;0.00
65574;PMS5003;52216;54.942;73.394;2023-04-25T06:18:33;0.50;0.00;0.00
65574;PMS5003;52216;54.942;73.394;2023-04-25T06:21:43;0.00;0.00;0.00
65574;PMS5003;52216;54.942;73.394;2023-04-25T06:24:56;0.00;0.00;0.00
65574;PMS5003;52216;54.942;73.394;2023-04-25T06:28:07;0.00;0.00;0.00
65574;PMS5003;52216;54.942;73.394;2023-04-25T06:31:11;0.00;0.00;0.00
65574;PMS5003;52216;54.942;73.394;2023-04-25T06:34:14;0.00;0.00;0.00
65574;PMS5003;52216;54.942;73.394;2023-04-25T06:37:18;0.75;0.00;0.00
65574;PMS5003;52216;54.942;73.394;2023-04-25T06:40:21;0.00;0.00;0.00
65574;PMS5003;52216;54.942;73.394;2023-04-25T06:43:24;0.00;0.00;0.00
65574;PMS5003;52216;54.942;73.394;2023-04-25T06:46:47;0.00;0.00;0.00
65574;PMS5003;52216;54.942;73.394;2023-04-25T06:49:50;0.00;0.00;0.00
65574;PMS5003;52216;54.942;73.394;2023-04-25T06:52:53;0.00;0.00;0.00
65574;PMS5003;52216;54.942;73.394;2023-04-25T06:55:58;0.00;0.00;0.00
65574;PMS5003;52216;54.942;73.394;2023-04-25T06:59:06;0.00;0.00;0.00
65574;PMS5003;52216;54.942;73.394;2023-04-25T07:02:12;0.00;0.00;0.00
65574;PMS5003;52216;54.942;73.394;2023-04-25T07:05:16;0.00;0.00;0.00
65574;PMS5003;52216;54.942;73.394;2023-04-25T07:08:23;0.00;0.00;0.00
65574;PMS5003;52216;54.942;73.394;2023-04-25T07:11:27;0.00;0.00;0.00
65574;PMS5003;52216;54.942;73.394;2023-04-25T07:14:37;2.00;1.00;0.00
65574;PMS5003;52216;54.942;73.394;2023-04-25T07:17:40;0.00;0.00;0.00
65574;PMS5003;52216;54.942;73.394;2023-04-25T07:20:43;2.00;0.75;0.00
65574;PMS5003;52216;54.942;73.394;2023-04-25T07:23:50;0.25;0.00;0.00
65574;PMS5003;52216;54.942;73.394;2023-04-25T07:26:58;1.00;1.00;0.00
65574;PMS5003;52216;54.942;73.394;2023-04-25T07:30:22;1.50;1.00;0.00
65574;PMS5003;52216;54.942;73.394;2023-04-25T07:33:25;1.00;1.00;0.00
65574;PMS5003;52216;54.942;73.394;2023-04-25T07:36:29;0.00;0.00;0.00
65574;PMS5003;52216;54.942;73.394;2023-04-25T07:39:33;1.00;1.00;0.00
65574;PMS5003;52216;54.942;73.394;2023-04-25T07:42:38;0.00;0.00;0.00
65574;PMS5003;52216;54.942;73.394;2023-04-25T07:45:43;0.00;0.00;0.00
65574;PMS5003;52216;54.942;73.394;2023-04-25T07:48:47;0.00;0.00;0.00
65574;PMS5003;52216;54.942;73.394;2023-04-25T07:51:51;1.00;0.00;0.00
65574;PMS5003;52216;54.942;73.394;2023-04-25T07:55:20;1.00;0.00;0.00
65574;PMS5003;52216;54.942;73.394;2023-04-25T07:58:44;2.00;0.00;0.00
65574;PMS5003;52216;54.942;73.394;2023-04-25T08:01:51;0.25;0.25;0.00
65574;PMS5003;52216;54.942;73.394;2023-04-25T08:04:56;1.00;1.00;0.00
65574;PMS5003;52216;54.942;73.394;2023-04-25T08:07:58;1.00;0.00;0.00
65574;PMS5003;52216;54.942;73.394;2023-04-25T08:11:03;2.00;1.00;0.00
65574;PMS5003;52216;54.942;73.394;2023-04-25T08:14:07;0.00;0.00;0.00
65574;PMS5003;52216;54.942;73.394;2023-04-25T08:17:11;1.25;1.25;0.00
65574;PMS5003;52216;54.942;73.394;2023-04-25T08:20:17;1.00;1.00;0.00
65574;PMS5003;52216;54.942;73.394;2023-04-25T08:23:20;1.33;1.00;0.00
65574;PMS5003;52216;54.942;73.394;2023-04-25T08:26:28;0.00;0.00;0.00
65574;PMS5003;52216;54.942;73.394;2023-04-25T08:29:30;0.00;0.00;0.00
65574;PMS5003;52216;54.942;73.394;2023-04-25T08:32:33;1.33;1.00;0.00
65574;PMS5003;52216;54.942;73.394;2023-04-25T08:35:50;1.00;1.00;0.00
65574;PMS5003;52216;54.942;73.394;2023-04-25T08:39:03;2.00;2.00;0.00
65574;PMS5003;52216;54.942;73.394;2023-04-25T08:42:10;0.00;0.00;0.00
65574;PMS5003;52216;54.942;73.394;2023-04-25T08:45:14;0.00;0.00;0.00
65574;PMS5003;52216;54.942;73.394;2023-04-25T08:48:18;0.00;0.00;0.00
65574;PMS5003;52216;54.942;73.394;2023-04-25T08:51:21;0.50;0.50;0.00
65574;PMS5003;52216;54.942;73.394;2023-04-25T08:54:27;1.00;1.00;0.00
65574;PMS5003;52216;54.942;73.394;2023-04-25T08:57:31;3.00;2.00;0.00
65574;PMS5003;52216;54.942;73.394;2023-04-25T09:00:36;1.00;1.00;0.00
65574;PMS5003;52216;54.942;73.394;2023-04-25T09:03:39;0.00;0.00;0.00
65574;PMS5003;52216;54.942;73.394;2023-04-25T09:06:49;1.25;0.00;0.00
65574;PMS5003;52216;54.942;73.394;2023-04-25T09:09:57;1.75;0.75;0.00
65574;PMS5003;52216;54.942;73.394;2023-04-25T09:13:09;2.00;2.00;0.00
65574;PMS5003;52216;54.942;73.394;2023-04-25T09:20:24;3.00;2.00;0.00
65574;PMS5003;52216;54.942;73.394;2023-04-25T09:23:27;2.00;1.75;0.00
65574;PMS5003;52216;54.942;73.394;2023-04-25T09:26:31;3.00;3.00;0.00
65574;PMS5003;52216;54.942;73.394;2023-04-25T09:29:37;2.00;0.00;0.00
65574;PMS5003;52216;54.942;73.394;2023-04-25T09:32:42;14.50;13.50;8.25
65574;PMS5003;52216;54.942;73.394;2023-04-25T09:35:45;22.40;20.00;12.20
65574;PMS5003;52216;54.942;73.394;2023-04-25T09:38:57;14.75;11.75;5.00
65574;PMS5003;52216;54.942;73.394;2023-04-25T09:42:04;10.25;7.75;3.00
65574;PMS5003;52216;54.942;73.394;2023-04-25T09:45:07;4.00;4.00;2.00
65574;PMS5003;52216;54.942;73.394;2023-04-25T09:48:18;2.00;2.00;1.75
65574;PMS5003;52216;54.942;73.394;2023-04-25T09:51:25;3.00;3.00;1.00
65574;PMS5003;52216;54.942;73.394;2023-04-25T09:54:29;4.00;4.00;1.00
65574;PMS5003;52216;54.942;73.394;2023-04-25T09:57:44;4.00;3.00;1.00
65574;PMS5003;52216;54.942;73.394;2023-04-25T10:00:50;7.00;7.00;2.00
65574;PMS5003;52216;54.942;73.394;2023-04-25T10:04:04;6.25;6.25;4.00
65574;PMS5003;52216;54.942;73.394;2023-04-25T10:07:18;5.00;5.00;2.00
65574;PMS5003;52216;54.942;73.394;2023-04-25T10:10:22;6.25;4.75;2.25
65574;PMS5003;52216;54.942;73.394;2023-04-25T10:13:29;3.00;3.00;3.00
65574;PMS5003;52216;54.942;73.394;2023-04-25T10:16:33;4.00;4.00;3.00
65574;PMS5003;52216;54.942;73.394;2023-04-25T10:19:37;3.50;3.50;1.00
65574;PMS5003;52216;54.942;73.394;2023-04-25T10:22:44;9.00;8.00;3.50
65574;PMS5003;52216;54.942;73.394;2023-04-25T10:25:46;6.75;6.75;4.00
65574;PMS5003;52216;54.942;73.394;2023-04-25T10:28:55;6.00;6.00;3.00
65574;PMS5003;52216;54.942;73.394;2023-04-25T10:31:57;5.00;5.00;2.00
65574;PMS5003;52216;54.942;73.394;2023-04-25T10:35:13;4.00;4.00;3.00
65574;PMS5003;52216;54.942;73.394;2023-04-25T10:38:16;3.00;3.00;2.00
65574;PMS5003;52216;54.942;73.394;2023-04-25T10:41:21;3.00;3.00;1.00
65574;PMS5003;52216;54.942;73.394;2023-04-25T10:44:26;1.00;1.00;0.00
65574;PMS5003;52216;54.942;73.394;2023-04-25T10:47:35;1.00;1.00;0.00
65574;PMS5003;52216;54.942;73.394;2023-04-25T10:50:38;1.00;1.00;0.00
65574;PMS5003;52216;54.942;73.394;2023-04-25T10:56:58;2.50;2.00;0.00
65574;PMS5003;52216;54.942;73.394;2023-04-25T11:00:06;1.00;1.00;0.00
65574;PMS5003;52216;54.942;73.394;2023-04-25T11:03:11;4.25;4.00;0.00
65574;PMS5003;52216;54.942;73.394;2023-04-25T11:06:37;6.00;5.00;0.00
65574;PMS5003;52216;54.942;73.394;2023-04-25T11:09:44;4.50;4.50;1.00
65574;PMS5003;52216;54.942;73.394;2023-04-25T11:12:48;2.25;2.00;0.00
65574;PMS5003;52216;54.942;73.394;2023-04-25T11:15:51;2.00;2.00;0.00
65574;PMS5003;52216;54.942;73.394;2023-04-25T11:18:56;1.00;1.00;0.00
65574;PMS5003;52216;54.942;73.394;2023-04-25T11:22:00;1.00;1.00;0.00
65574;PMS5003;52216;54.942;73.394;2023-04-25T11:25:04;1.00;1.00;0.00
65574;PMS5003;52216;54.942;73.394;2023-04-25T11:28:08;0.00;0.00;0.00
65574;PMS5003;52216;54.942;73.394;2023-04-25T11:31:11;2.00;1.00;0.00
65574;PMS5003;52216;54.942;73.394;2023-04-25T11:34:18;1.00;1.00;0.00
65574;PMS5003;52216;54.942;73.394;2023-04-25T11:37:21;0.00;0.00;0.00
65574;PMS5003;52216;54.942;73.394;2023-04-25T11:40:24;1.00;0.00;0.00
65574;PMS5003;52216;54.942;73.394;2023-04-25T11:43:28;1.00;0.00;0.00
65574;PMS5003;52216;54.942;73.394;2023-04-25T11:47:10;1.00;1.00;0.00
65574;PMS5003;52216;54.942;73.394;2023-04-25T11:50:13;3.00;1.75;0.00
65574;PMS5003;52216;54.942;73.394;2023-04-25T11:53:20;2.00;1.00;0.00
65574;PMS5003;52216;54.942;73.394;2023-04-25T11:56:23;2.75;2.00;0.00
65574;PMS5003;52216;54.942;73.394;2023-04-25T11:59:26;2.00;2.00;0.00
65574;PMS5003;52216;54.942;73.394;2023-04-25T12:02:28;1.00;1.00;0.00
65574;PMS5003;52216;54.942;73.394;2023-04-25T12:05:31;1.00;1.00;0.00
65574;PMS5003;52216;54.942;73.394;2023-04-25T12:08:38;1.00;1.00;0.00
65574;PMS5003;52216;54.942;73.394;2023-04-25T12:11:44;1.00;1.00;0.00
65574;PMS5003;52216;54.942;73.394;2023-04-25T12:14:53;0.00;0.00;0.00
65574;PMS5003;52216;54.942;73.394;2023-04-25T12:17:56;0.00;0.00;0.00
65574;PMS5003;52216;54.942;73.394;2023-04-25T12:20:59;0.00;0.00;0.00
65574;PMS5003;52216;54.942;73.394;2023-04-25T12:24:36;0.00;0.00;0.00
65574;PMS5003;52216;54.942;73.394;2023-04-25T12:27:32;0.00;0.00;0.00
65574;PMS5003;52216;54.942;73.394;2023-04-25T12:33:55;0.75;0.75;0.00
65574;PMS5003;52216;54.942;73.394;2023-04-25T12:36:59;1.00;1.00;0.00
65574;PMS5003;52216;54.942;73.394;2023-04-25T12:40:03;2.00;1.00;0.00
65574;PMS5003;52216;54.942;73.394;2023-04-25T12:43:08;1.00;0.00;0.00
65574;PMS5003;52216;54.942;73.394;2023-04-25T12:46:12;0.00;0.00;0.00
65574;PMS5003;52216;54.942;73.394;2023-04-25T12:49:15;0.00;0.00;0.00
65574;PMS5003;52216;54.942;73.394;2023-04-25T12:52:18;1.00;0.00;0.00
65574;PMS5003;52216;54.942;73.394;2023-04-25T12:55:21;1.00;0.00;0.00
65574;PMS5003;52216;54.942;73.394;2023-04-25T12:58:24;0.00;0.00;0.00
65574;PMS5003;52216;54.942;73.394;2023-04-25T13:01:33;0.00;0.00;0.00
65574;PMS5003;52216;54.942;73.394;2023-04-25T13:04:41;0.00;0.00;0.00
65574;PMS5003;52216;54.942;73.394;2023-04-25T13:07:54;0.00;0.00;0.00
65574;PMS5003;52216;54.942;73.394;2023-04-25T13:11:07;0.00;0.00;0.00
65574;PMS5003;52216;54.942;73.394;2023-04-25T13:14:10;1.00;0.00;0.00
65574;PMS5003;52216;54.942;73.394;2023-04-25T13:17:24;0.00;0.00;0.00
65574;PMS5003;52216;54.942;73.394;2023-04-25T13:20:27;0.00;0.00;0.00
65574;PMS5003;52216;54.942;73.394;2023-04-25T13:23:30;0.00;0.00;0.00
65574;PMS5003;52216;54.942;73.394;2023-04-25T13:26:34;0.00;0.00;0.00
65574;PMS5003;52216;54.942;73.394;2023-04-25T13:29:36;0.00;0.00;0.00
65574;PMS5003;52216;54.942;73.394;2023-04-25T13:32:46;0.00;0.00;0.00
65574;PMS5003;52216;54.942;73.394;2023-04-25T13:35:54;0.00;0.00;0.00
65574;PMS5003;52216;54.942;73.394;2023-04-25T13:38:59;0.00;0.00;0.00
65574;PMS5003;52216;54.942;73.394;2023-04-25T13:42:03;0.00;0.00;0.00
65574;PMS5003;52216;54.942;73.394;2023-04-25T13:45:06;0.00;0.00;0.00
65574;PMS5003;52216;54.942;73.394;2023-04-25T13:48:11;0.00;0.00;0.00
65574;PMS5003;52216;54.942;73.394;2023-04-25T13:51:15;1.00;0.00;0.00
65574;PMS5003;52216;54.942;73.394;2023-04-25T13:54:19;2.75;1.25;0.00
65574;PMS5003;52216;54.942;73.394;2023-04-25T13:57:22;1.00;1.00;0.00
65574;PMS5003;52216;54.942;73.394;2023-04-25T14:00:25;1.75;1.75;0.00
65574;PMS5003;52216;54.942;73.394;2023-04-25T14:03:29;3.00;3.00;0.00
65574;PMS5003;52216;54.942;73.394;2023-04-25T14:06:42;2.00;2.00;0.00
65574;PMS5003;52216;54.942;73.394;2023-04-25T14:09:51;3.67;2.00;0.00
65574;PMS5003;52216;54.942;73.394;2023-04-25T14:12:53;4.00;3.25;0.00
65574;PMS5003;52216;54.942;73.394;2023-04-25T14:15:55;6.25;5.75;0.00
65574;PMS5003;52216;54.942;73.394;2023-04-25T14:18:58;10.33;8.67;3.00
65574;PMS5003;52216;54.942;73.394;2023-04-25T14:22:01;13.00;12.00;6.00
65574;PMS5003;52216;54.942;73.394;2023-04-25T14:25:03;15.00;13.00;5.00
65574;PMS5003;52216;54.942;73.394;2023-04-25T14:28:07;15.00;13.00;5.00
65574;PMS5003;52216;54.942;73.394;2023-04-25T14:31:09;15.00;12.50;6.00
65574;PMS5003;52216;54.942;73.394;2023-04-25T14:34:13;13.67;11.00;4.00
65574;PMS5003;52216;54.942;73.394;2023-04-25T14:37:15;16.00;14.25;5.75
65574;PMS5003;52216;54.942;73.394;2023-04-25T14:40:18;16.25;13.25;6.25
65574;PMS5003;52216;54.942;73.394;2023-04-25T14:43:24;19.50;16.25;10.50
65574;PMS5003;52216;54.942;73.394;2023-04-25T14:46:26;24.33;22.33;14.00
65574;PMS5003;52216;54.942;73.394;2023-04-25T14:49:31;31.50;24.50;16.00
65574;PMS5003;52216;54.942;73.394;2023-04-25T14:52:33;30.75;27.75;17.75
65574;PMS5003;52216;54.942;73.394;2023-04-25T14:55:36;34.00;29.00;19.20
65574;PMS5003;52216;54.942;73.394;2023-04-25T14:59:07;40.67;32.67;21.67
65574;PMS5003;52216;54.942;73.394;2023-04-25T15:02:09;39.00;32.00;20.67
65574;PMS5003;52216;54.942;73.394;2023-04-25T15:05:14;38.75;31.00;20.00
65574;PMS5003;52216;54.942;73.394;2023-04-25T15:08:16;39.75;31.25;19.50
65574;PMS5003;52216;54.942;73.394;2023-04-25T15:11:25;40.00;34.00;22.00
65574;PMS5003;52216;54.942;73.394;2023-04-25T15:14:28;42.20;35.00;21.00
65574;PMS5003;52216;54.942;73.394;2023-04-25T15:17:30;41.00;34.00;21.25
65574;PMS5003;52216;54.942;73.394;2023-04-25T15:20:33;43.00;34.75;21.75
65574;PMS5003;52216;54.942;73.394;2023-04-25T15:24:07;46.00;38.33;25.00
65574;PMS5003;52216;54.942;73.394;2023-04-25T15:27:12;47.20;38.20;25.00
65574;PMS5003;52216;54.942;73.394;2023-04-25T15:30:25;43.80;35.40;23.00
65574;PMS5003;52216;54.942;73.394;2023-04-25T15:33:29;45.60;37.40;24.20
65574;PMS5003;52216;54.942;73.394;2023-04-25T15:36:31;50.50;40.25;26.00
65574;PMS5003;52216;54.942;73.394;2023-04-25T15:39:33;53.25;42.50;27.00
65574;PMS5003;52216;54.942;73.394;2023-04-25T15:42:36;54.75;43.75;27.25
65574;PMS5003;52216;54.942;73.394;2023-04-25T15:49:37;56.00;43.00;28.00
65574;PMS5003;52216;54.942;73.394;2023-04-25T15:52:39;53.00;41.75;26.00
65574;PMS5003;52216;54.942;73.394;2023-04-25T15:55:42;55.25;42.50;27.00
65574;PMS5003;52216;54.942;73.394;2023-04-25T15:58:51;54.00;42.50;27.00
65574;PMS5003;52216;54.942;73.394;2023-04-25T16:01:54;54.00;42.25;27.00
65574;PMS5003;52216;54.942;73.394;2023-04-25T16:04:57;51.50;41.50;26.00
65574;PMS5003;52216;54.942;73.394;2023-04-25T16:08:05;49.50;40.00;25.50
65574;PMS5003;52216;54.942;73.394;2023-04-25T16:11:13;49.75;39.25;25.50
65574;PMS5003;52216;54.942;73.394;2023-04-25T16:14:15;51.00;40.00;25.50
65574;PMS5003;52216;54.942;73.394;2023-04-25T16:17:27;49.00;39.00;25.00
65574;PMS5003;52216;54.942;73.394;2023-04-25T16:20:31;47.00;37.00;25.00
65574;PMS5003;52216;54.942;73.394;2023-04-25T16:23:33;49.50;39.25;25.25
65574;PMS5003;52216;54.942;73.394;2023-04-25T16:26:36;50.00;40.00;25.00
65574;PMS5003;52216;54.942;73.394;2023-04-25T16:29:44;47.00;37.00;24.00
65574;PMS5003;52216;54.942;73.394;2023-04-25T16:32:47;45.80;36.60;24.60
65574;PMS5003;52216;54.942;73.394;2023-04-25T16:35:57;44.00;36.00;24.00
65574;PMS5003;52216;54.942;73.394;2023-04-25T16:38:59;45.75;37.75;23.50
65574;PMS5003;52216;54.942;73.394;2023-04-25T16:42:07;47.00;38.00;23.60
65574;PMS5003;52216;54.942;73.394;2023-04-25T16:45:19;46.00;37.75;23.50
65574;PMS5003;52216;54.942;73.394;2023-04-25T16:48:21;44.50;36.75;23.50
65574;PMS5003;52216;54.942;73.394;2023-04-25T16:51:26;41.00;33.40;22.60
65574;PMS5003;52216;54.942;73.394;2023-04-25T16:54:28;37.00;31.00;21.00
65574;PMS5003;52216;54.942;73.394;2023-04-25T16:57:32;38.00;31.00;20.00
65574;PMS5003;52216;54.942;73.394;2023-04-25T17:00:34;35.00;29.00;20.00
65574;PMS5003;52216;54.942;73.394;2023-04-25T17:03:37;33.00;28.75;19.00
65574;PMS5003;52216;54.942;73.394;2023-04-25T17:06:40;28.80;26.00;18.00
65574;PMS5003;52216;54.942;73.394;2023-04-25T17:09:49;29.00;27.00;18.00
65574;PMS5003;52216;54.942;73.394;2023-04-25T17:12:52;29.00;27.60;18.00
65574;PMS5003;52216;54.942;73.394;2023-04-25T17:15:54;29.50;27.00;16.00
65574;PMS5003;52216;54.942;73.394;2023-04-25T17:19:04;32.00;27.50;16.00
65574;PMS5003;52216;54.942;73.394;2023-04-25T17:22:16;29.00;27.00;17.00
65574;PMS5003;52216;54.942;73.394;2023-04-25T17:25:28;27.50;23.00;16.00
65574;PMS5003;52216;54.942;73.394;2023-04-25T17:28:30;26.00;21.75;14.00
65574;PMS5003;52216;54.942;73.394;2023-04-25T17:31:32;24.25;21.75;13.50
65574;PMS5003;52216;54.942;73.394;2023-04-25T17:34:34;26.00;23.50;14.00
65574;PMS5003;52216;54.942;73.394;2023-04-25T17:37:48;26.50;24.00;14.00
65574;PMS5003;52216;54.942;73.394;2023-04-25T17:40:52;22.00;21.00;13.00
65574;PMS5003;52216;54.942;73.394;2023-04-25T17:43:59;20.00;20.00;13.00
65574;PMS5003;52216;54.942;73.394;2023-04-25T17:47:02;18.00;17.00;9.00
65574;PMS5003;52216;54.942;73.394;2023-04-25T17:50:05;18.00;17.00;8.33
65574;PMS5003;52216;54.942;73.394;2023-04-25T17:53:08;17.00;15.50;7.00
65574;PMS5003;52216;54.942;73.394;2023-04-25T17:56:11;18.00;16.00;8.00
65574;PMS5003;52216;54.942;73.394;2023-04-25T17:59:13;20.00;18.00;7.00
65574;PMS5003;52216;54.942;73.394;2023-04-25T18:02:16;19.00;18.00;6.25
65574;PMS5003;52216;54.942;73.394;2023-04-25T18:05:19;18.00;15.50;6.00